Time;durP1;ratioP1;P1;durP2;ratioP2;P2;SDS_P1;SDS_P2;PMS_P1;PMS_P2;Temp;Humidity;BMP_temperature;BMP_pressure;BME280_temperature;BME280_humidity;BME280_pressure;Samples;Min_cycle;Max_cycle;Signal;HPM_P1;HPM_P2
2021/04/09 00:01:56;;;;;;;7.38;5.07;;;4.10;99.90;;;;;;5117334;28;20217;-86
2021/04/09 00:04:22;;;;;;;6.38;5.68;;;4.20;99.90;;;;;;5117638;28;20193;-86
2021/04/09 00:06:48;;;;;;;5.65;5.03;;;3.80;99.90;;;;;;5117085;28;20205;-86
2021/04/09 00:09:15;;;;;;;8.07;5.43;;;4.00;99.90;;;;;;5114762;28;20672;-87
2021/04/09 00:11:42;;;;;;;8.23;5.50;;;4.00;99.90;;;;;;5101490;28;20289;-87
2021/04/09 00:14:10;;;;;;;8.68;6.07;;;3.90;99.90;;;;;;5100960;28;20225;-87
2021/04/09 00:16:38;;;;;;;6.25;5.47;;;3.90;99.90;;;;;;5100239;28;20206;-87
2021/04/09 00:19:05;;;;;;;7.95;5.28;;;3.80;99.90;;;;;;5098988;28;20707;-87
2021/04/09 00:21:32;;;;;;;6.95;4.60;;;3.80;99.90;;;;;;5099163;28;20202;-87
2021/04/09 00:23:58;;;;;;;6.60;4.63;;;3.90;99.90;;;;;;5098991;28;20202;-87
2021/04/09 00:26:24;;;;;;;9.05;4.90;;;;;;;;;;5099138;28;20209;-87
2021/04/09 00:28:51;;;;;;;7.95;5.07;;;3.90;99.90;;;;;;5098388;28;20275;-87
2021/04/09 00:31:18;;;;;;;9.20;5.25;;;;;;;;;;5100016;28;20326;-86
2021/04/09 00:33:44;;;;;;;7.47;4.70;;;;;;;;;;5099378;28;20220;-86
2021/04/09 00:36:11;;;;;;;9.88;4.93;;;;;;;;;;5098659;28;20206;-86
2021/04/09 00:38:38;;;;;;;6.13;5.53;;;;;;;;;;5098573;28;20228;-86
2021/04/09 00:41:04;;;;;;;8.88;5.15;;;;;;;;;;5108395;28;20209;-86
2021/04/09 00:43:31;;;;;;;8.88;5.10;;;;;;;;;;5117538;28;20208;-86
2021/04/09 00:45:57;;;;;;;5.65;5.15;;;3.60;99.90;;;;;;5104826;28;20201;-87
2021/04/09 00:48:24;;;;;;;8.50;6.18;;;3.60;99.90;;;;;;5099496;28;20259;-87
2021/04/09 00:50:50;;;;;;;10.35;5.38;;;3.60;99.90;;;;;;5099565;28;20580;-87
2021/04/09 00:53:18;;;;;;;7.00;5.80;;;3.60;99.90;;;;;;5098389;28;20239;-87
2021/04/09 00:55:45;;;;;;;8.77;4.65;;;3.50;99.90;;;;;;5098334;28;20254;-87
2021/04/09 00:58:11;;;;;;;10.90;5.38;;;3.60;99.90;;;;;;5099061;28;20198;-87
2021/04/09 01:00:38;;;;;;;7.55;4.60;;;3.60;99.90;;;;;;5098772;28;20209;-87
2021/04/09 01:03:04;;;;;;;5.63;5.22;;;3.60;99.90;;;;;;5099358;28;20201;-87
2021/04/09 01:05:33;;;;;;;5.43;4.93;;;3.40;99.90;;;;;;5097842;28;20267;-87
2021/04/09 01:08:01;;;;;;;8.48;4.78;;;3.50;99.90;;;;;;5097945;28;20218;-87
2021/04/09 01:10:28;;;;;;;6.25;5.13;;;3.40;99.90;;;;;;5097886;28;20228;-87
2021/04/09 01:12:55;;;;;;;6.60;5.35;;;3.30;99.90;;;;;;5098442;28;20699;-87
2021/04/09 01:15:22;;;;;;;7.13;4.85;;;3.30;99.90;;;;;;5101594;28;20201;-87
2021/04/09 01:17:55;;;;;;;7.82;4.70;;;3.40;99.90;;;;;;5097501;28;20212;-87
2021/04/09 01:20:41;;;;;;;5.60;5.03;;;3.30;99.90;;;;;;5096929;28;20230;-87
2021/04/09 01:23:28;;;;;;;7.30;5.72;;;3.30;99.90;;;;;;5097145;28;20523;-87
2021/04/09 01:26:27;;;;;;;14.20;5.65;;;3.20;99.90;;;;;;5101125;28;20206;-85
2021/04/09 01:29:11;;;;;;;6.65;5.60;;;3.20;99.90;;;;;;5096359;28;20233;-85
2021/04/09 01:31:44;;;;;;;4.82;4.35;;;3.30;99.90;;;;;;5096306;28;20183;-85
2021/04/09 01:34:11;;;;;;;7.55;4.70;;;3.30;99.90;;;;;;5096842;28;20183;-86
2021/04/09 01:36:40;;;;;;;14.40;5.70;;;3.30;99.90;;;;;;5097622;28;20236;-86
2021/04/09 01:39:11;;;;;;;6.65;4.75;;;3.20;99.90;;;;;;5098885;28;20304;-86
2021/04/09 01:41:38;;;;;;;14.77;5.65;;;3.20;99.90;;;;;;5101284;28;20526;-86
2021/04/09 01:44:06;;;;;;;5.00;4.57;;;3.20;99.90;;;;;;5107446;28;20193;-86
2021/04/09 01:46:34;;;;;;;5.57;4.72;;;3.40;99.90;;;;;;5109811;28;20232;-86
2021/04/09 01:49:02;;;;;;;6.68;5.72;;;3.20;99.90;;;;;;5104331;28;20610;-86
2021/04/09 01:51:28;;;;;;;7.13;5.15;;;3.30;99.90;;;;;;5102017;28;20578;-86
2021/04/09 01:53:55;;;;;;;4.70;4.20;;;3.30;99.90;;;;;;5101710;28;20198;-86
2021/04/09 01:56:23;;;;;;;5.93;4.20;;;3.20;99.90;;;;;;5101552;28;20202;-86
2021/04/09 01:58:51;;;;;;;6.55;5.03;;;3.20;99.90;;;;;;5113926;28;20213;-86
2021/04/09 02:01:18;;;;;;;9.18;4.97;;;3.20;99.90;;;;;;5116216;28;20219;-85
2021/04/09 02:03:51;;;;;;;6.85;4.75;;;3.10;99.90;;;;;;5103850;28;20237;-86
2021/04/09 02:06:19;;;;;;;6.75;5.75;;;3.10;99.90;;;;;;5101458;28;20645;-86
2021/04/09 02:12:08;;;;;;;6.68;4.47;;;3.10;99.90;;;;;;5102237;28;20181;-87
2021/04/09 02:14:36;;;;;;;6.20;4.53;;;3.10;99.90;;;;;;5101096;28;20209;-86
2021/04/09 02:17:03;;;;;;;8.45;4.68;;;3.10;99.90;;;;;;5101233;28;20201;-85
2021/04/09 02:19:29;;;;;;;4.85;4.22;;;3.10;99.90;;;;;;5102390;28;20213;-86
2021/04/09 02:21:57;;;;;;;8.25;4.60;;;3.00;99.90;;;;;;5119019;28;20222;-87
2021/04/09 02:24:23;;;;;;;6.35;5.03;;;3.00;99.90;;;;;;5118234;28;20201;-87
2021/04/09 02:26:49;;;;;;;8.93;4.45;;;2.90;99.90;;;;;;5115352;28;20221;-86
2021/04/09 02:29:16;;;;;;;8.52;4.82;;;2.90;99.90;;;;;;5112693;28;20233;-86
2021/04/09 02:31:43;;;;;;;5.28;3.78;;;3.00;99.90;;;;;;5116270;28;20189;-86
2021/04/09 02:34:10;;;;;;;7.82;5.55;;;2.90;99.90;;;;;;5118624;28;20292;-86
2021/04/09 02:36:36;;;;;;;8.65;4.80;;;3.00;99.90;;;;;;5113025;28;20205;-87
2021/04/09 02:39:10;;;;;;;6.60;3.65;;;2.90;99.90;;;;;;5106570;28;20219;-87
2021/04/09 02:41:41;;;;;;;5.07;4.68;;;3.00;99.90;;;;;;5109983;28;20173;-86
2021/04/09 02:44:07;;;;;;;5.25;4.72;;;2.80;99.90;;;;;;5118010;28;20213;-86
2021/04/09 02:46:43;;;;;;;10.50;4.20;;;2.90;99.90;;;;;;5112292;28;20543;-86
2021/04/09 02:49:19;;;;;;;4.50;3.75;;;3.00;99.90;;;;;;5114506;28;20225;-86
2021/04/09 02:51:45;;;;;;;6.80;4.40;;;3.00;99.90;;;;;;5112958;28;20424;-86
2021/04/09 02:54:16;;;;;;;5.50;4.78;;;2.90;99.90;;;;;;5113774;28;20237;-86
2021/04/09 02:56:42;;;;;;;6.43;4.28;;;2.90;99.90;;;;;;5112988;28;20186;-86
2021/04/09 02:59:12;;;;;;;8.77;4.50;;;2.90;99.90;;;;;;5102668;28;20221;-86
2021/04/09 03:01:40;;;;;;;7.70;4.97;;;2.80;99.90;;;;;;5100504;28;20201;-86
2021/04/09 03:04:07;;;;;;;5.38;4.45;;;2.80;99.90;;;;;;5100233;28;20209;-87
2021/04/09 03:06:36;;;;;;;5.97;4.95;;;2.50;99.90;;;;;;5100079;28;20616;-87
2021/04/09 03:09:05;;;;;;;5.32;4.25;;;2.70;99.90;;;;;;5099816;28;20230;-86
2021/04/09 03:11:33;;;;;;;5.60;4.38;;;2.70;99.90;;;;;;5100443;28;20608;-87
2021/04/09 03:14:00;;;;;;;13.45;5.20;;;2.70;99.90;;;;;;5101266;28;20228;-87
2021/04/09 03:16:28;;;;;;;5.82;5.20;;;3.00;99.90;;;;;;5099194;28;20205;-86
2021/04/09 03:18:54;;;;;;;5.97;4.05;;;2.80;99.90;;;;;;5100265;28;20217;-86
2021/04/09 03:21:21;;;;;;;5.78;5.05;;;2.70;99.90;;;;;;5099816;28;20213;-86
2021/04/09 03:23:47;;;;;;;8.02;4.63;;;2.70;99.90;;;;;;5099716;28;20202;-87
2021/04/09 03:26:13;;;;;;;5.05;4.55;;;2.70;99.90;;;;;;5099466;28;20231;-87
2021/04/09 03:28:40;;;;;;;5.43;4.93;;;2.70;99.90;;;;;;5099337;28;20260;-87
2021/04/09 03:31:07;;;;;;;7.03;5.50;;;2.60;99.90;;;;;;5099588;28;20173;-87
2021/04/09 03:33:33;;;;;;;7.20;5.35;;;2.60;99.90;;;;;;5099269;28;20205;-87
2021/04/09 03:35:59;;;;;;;8.07;4.22;;;2.60;99.90;;;;;;5098363;28;20208;-87
2021/04/09 03:38:26;;;;;;;7.18;4.35;;;2.50;99.90;;;;;;5099298;28;20222;-87
2021/04/09 03:40:52;;;;;;;5.65;4.70;;;2.60;99.90;;;;;;5099082;28;20228;-87
2021/04/09 03:43:18;;;;;;;8.65;4.50;;;2.70;99.90;;;;;;5096770;28;20441;-87
2021/04/09 03:45:45;;;;;;;8.60;5.18;;;2.40;99.90;;;;;;5096838;28;20425;-87
2021/04/09 03:48:11;;;;;;;7.13;4.83;;;2.80;99.90;;;;;;5096019;28;20460;-87
2021/04/09 03:50:37;;;;;;;5.22;4.72;;;2.60;99.90;;;;;;5096413;28;20454;-87
2021/04/09 03:53:04;;;;;;;7.03;5.53;;;2.70;99.90;;;;;;5096736;28;20201;-87
2021/04/09 03:55:31;;;;;;;8.40;5.28;;;2.40;99.90;;;;;;5097543;28;20288;-87
2021/04/09 03:57:57;;;;;;;7.20;4.90;;;2.60;99.90;;;;;;5096769;28;20444;-87
2021/04/09 04:00:23;;;;;;;7.72;5.32;;;2.80;99.90;;;;;;5096905;28;20428;-87
2021/04/09 04:02:51;;;;;;;7.47;5.68;;;2.60;99.90;;;;;;5096546;28;20210;-87
2021/04/09 04:05:18;;;;;;;5.18;4.70;;;2.40;99.90;;;;;;5096388;28;20202;-87
2021/04/09 04:07:44;;;;;;;5.95;5.35;;;2.50;99.90;;;;;;5097519;28;20205;-87
2021/04/09 04:10:12;;;;;;;6.95;4.93;;;2.40;99.90;;;;;;5097078;28;20605;-86
2021/04/09 04:12:38;;;;;;;9.27;5.55;;;2.50;99.90;;;;;;5103487;28;20551;-87
2021/04/09 04:15:06;;;;;;;8.52;4.78;;;2.60;99.90;;;;;;5109907;28;20250;-87
2021/04/09 04:17:32;;;;;;;10.77;5.38;;;2.40;99.90;;;;;;5110344;28;20440;-87
2021/04/09 04:20:01;;;;;;;12.95;5.80;;;2.30;99.90;;;;;;5111433;28;20906;-86
2021/04/09 04:22:27;;;;;;;7.28;5.57;;;2.40;99.90;;;;;;5108682;28;20225;-87
2021/04/09 04:24:54;;;;;;;7.40;5.10;;;2.50;99.90;;;;;;5111561;28;20206;-86
2021/04/09 04:27:20;;;;;;;6.40;5.20;;;2.50;99.90;;;;;;5110226;28;20205;-85
2021/04/09 04:29:46;;;;;;;15.73;5.38;;;2.50;99.90;;;;;;5113434;28;20225;-86
2021/04/09 04:32:13;;;;;;;6.95;5.40;;;2.40;99.90;;;;;;5111602;28;20185;-86
2021/04/09 04:34:39;;;;;;;7.05;5.05;;;2.40;99.90;;;;;;5112842;28;20227;-86
2021/04/09 04:37:06;;;;;;;5.88;5.28;;;2.70;99.90;;;;;;5118351;28;20197;-86
2021/04/09 04:39:32;;;;;;;11.10;5.85;;;2.40;99.90;;;;;;5117579;28;20233;-86
2021/04/09 04:41:58;;;;;;;15.02;5.28;;;2.40;99.90;;;;;;5118398;28;20189;-86
2021/04/09 04:44:25;;;;;;;9.30;5.70;;;2.50;99.90;;;;;;5118317;28;20182;-86
2021/04/09 04:46:51;;;;;;;9.60;6.55;;;2.40;99.90;;;;;;5116914;28;20208;-87
2021/04/09 04:49:17;;;;;;;7.75;5.68;;;2.50;99.90;;;;;;5104248;28;20663;-87
2021/04/09 04:51:43;;;;;;;8.15;5.65;;;2.30;99.90;;;;;;5100942;28;20209;-87
2021/04/09 04:54:10;;;;;;;6.65;5.55;;;2.40;99.90;;;;;;5100547;28;20197;-87
2021/04/09 04:56:37;;;;;;;19.27;6.50;;;;;;;;;;5098526;28;20194;-86
2021/04/09 04:59:03;;;;;;;10.55;6.97;;;2.50;99.90;;;;;;5097103;28;20283;-86
2021/04/09 05:01:29;;;;;;;8.65;5.65;;;2.50;99.90;;;;;;5098035;28;20206;-86
2021/04/09 05:03:56;;;;;;;14.25;7.20;;;2.40;99.90;;;;;;5098174;28;20220;-87
2021/04/09 05:06:23;;;;;;;8.63;6.78;;;2.60;99.90;;;;;;5097713;28;20201;-86
2021/04/09 05:08:49;;;;;;;17.70;7.20;;;2.60;99.90;;;;;;5096192;28;20252;-87
2021/04/09 05:11:16;;;;;;;16.27;7.93;;;2.50;99.90;;;;;;5096888;28;20224;-87
2021/04/09 05:13:44;;;;;;;8.50;5.65;;;2.60;99.90;;;;;;5097732;28;20205;-87
2021/04/09 05:16:10;;;;;;;6.63;5.88;;;2.70;99.90;;;;;;5100808;28;20205;-87
2021/04/09 05:18:36;;;;;;;9.95;6.05;;;2.80;99.90;;;;;;5100806;28;20221;-87
2021/04/09 05:21:02;;;;;;;6.90;5.68;;;2.80;99.90;;;;;;5099558;28;20741;-87
2021/04/09 05:23:28;;;;;;;9.77;6.05;;;2.80;99.90;;;;;;5100190;28;20632;-87
2021/04/09 05:25:54;;;;;;;7.43;6.60;;;2.90;99.90;;;;;;5101054;28;20209;-86
2021/04/09 05:28:21;;;;;;;8.15;6.35;;;3.10;99.90;;;;;;5101284;28;20202;-86
2021/04/09 05:30:47;;;;;;;6.82;6.18;;;2.90;99.90;;;;;;5105649;28;20194;-86
2021/04/09 05:33:14;;;;;;;8.88;6.05;;;3.40;99.90;;;;;;5120868;28;20194;-89
2021/04/09 05:35:40;;;;;;;8.75;6.90;;;3.10;99.90;;;;;;5121848;28;20237;-88
2021/04/09 05:38:07;;;;;;;8.23;6.18;;;2.90;99.90;;;;;;5114873;28;20652;-86
2021/04/09 05:40:33;;;;;;;14.55;7.32;;;3.20;99.90;;;;;;5105174;28;20202;-85
2021/04/09 05:43:02;;;;;;;7.30;6.35;;;3.20;99.90;;;;;;5105450;28;20208;-86
2021/04/09 05:45:30;;;;;;;11.40;7.75;;;3.00;99.90;;;;;;5103173;28;20212;-86
2021/04/09 05:48:02;;;;;;;9.32;7.25;;;3.10;99.90;;;;;;5101615;28;20207;-86
2021/04/09 05:50:28;;;;;;;12.40;6.93;;;3.40;99.90;;;;;;5102809;28;20206;-87
2021/04/09 05:52:55;;;;;;;12.20;7.10;;;3.40;99.90;;;;;;5102577;28;20205;-87
2021/04/09 05:55:22;;;;;;;7.35;6.65;;;3.50;99.90;;;;;;5103968;28;20206;-87
2021/04/09 05:57:48;;;;;;;8.73;6.82;;;3.70;99.90;;;;;;5115006;28;20213;-87
2021/04/09 06:00:15;;;;;;;8.57;7.55;;;3.80;99.90;;;;;;5120067;28;20222;-87
2021/04/09 06:02:43;;;;;;;8.02;7.07;;;3.80;99.90;;;;;;5117036;28;20211;-86
2021/04/09 06:05:11;;;;;;;10.63;7.18;;;3.70;99.90;;;;;;5115183;28;20201;-86
2021/04/09 06:07:37;;;;;;;9.25;6.25;;;4.30;99.90;;;;;;5121134;28;20236;-89
2021/04/09 06:10:05;;;;;;;13.15;8.30;;;4.50;99.90;;;;;;5116691;28;20236;-86
2021/04/09 06:12:32;;;;;;;12.00;6.93;;;4.00;99.90;;;;;;5112673;28;20209;-86
2021/04/09 06:14:59;;;;;;;11.00;7.65;;;3.90;99.90;;;;;;5120923;28;20181;-87
2021/04/09 06:17:25;;;;;;;12.95;8.73;;;4.30;99.90;;;;;;5120746;28;20193;-87
2021/04/09 06:19:52;;;;;;;10.32;6.80;;;4.10;99.90;;;;;;5120133;28;20201;-87
2021/04/09 06:22:19;;;;;;;10.32;7.00;;;4.50;99.90;;;;;;5120717;28;20205;-87
2021/04/09 06:24:47;;;;;;;8.98;7.20;;;4.60;99.90;;;;;;5113054;28;20214;-87
2021/04/09 06:27:13;;;;;;;13.77;8.40;;;5.30;99.90;;;;;;5102517;28;20221;-87
2021/04/09 06:29:39;;;;;;;10.20;7.07;;;5.20;99.90;;;;;;5101948;28;20283;-87
2021/04/09 06:32:09;;;;;;;13.68;8.00;;;4.70;99.90;;;;;;5102938;28;20205;-86
2021/04/09 06:34:38;;;;;;;7.28;6.57;;;4.90;99.90;;;;;;5102327;28;20209;-86
2021/04/09 06:37:06;;;;;;;8.85;7.32;;;4.80;99.90;;;;;;5101444;28;20220;-86
2021/04/09 06:40:17;;;;;;;16.98;7.50;;;5.00;99.90;;;;;;5102061;28;20262;-89
2021/04/09 06:45:42;;;;;;;9.77;7.47;;;;;;;;;;5106833;28;20198;-87
2021/04/09 06:51:57;;;;;;;10.35;6.63;;;5.10;99.90;;;;;;5092654;28;20225;-87
2021/04/09 06:54:27;;;;;;;8.43;5.90;;;;;;;;;;5101653;28;20202;-86
2021/04/09 07:08:44;;;;;;;9.57;6.90;;;6.00;99.90;;;;;;4911300;28;20293;-90
2021/04/09 07:14:53;;;;;;;9.00;6.53;;;6.20;99.90;;;;;;5058540;22;20300;-82
2021/04/09 07:17:27;;;;;;;7.50;6.03;;;5.90;99.90;;;;;;5076554;28;20188;-83
2021/04/09 07:20:08;;;;;;;8.30;7.32;;;6.10;99.90;;;;;;5077324;28;20186;-83
2021/04/09 07:22:35;;;;;;;12.02;8.00;;;6.50;99.90;;;;;;5069876;28;20187;-84
2021/04/09 07:25:07;;;;;;;9.63;7.15;;;6.20;99.90;;;;;;5067382;28;20233;-83
2021/04/09 07:27:33;;;;;;;10.60;7.05;;;6.20;99.90;;;;;;5066035;28;20206;-83
2021/04/09 07:30:00;;;;;;;10.40;7.85;;;6.20;99.90;;;;;;5064924;28;20223;-83
2021/04/09 07:32:32;;;;;;;9.02;6.90;;;6.20;99.90;;;;;;5065052;28;20313;-83
2021/04/09 07:35:06;;;;;;;7.25;6.53;;;6.20;99.90;;;;;;5065048;28;20241;-83
2021/04/09 07:37:46;;;;;;;10.35;7.18;;;6.40;99.90;;;;;;5065814;28;20219;-84
2021/04/09 07:40:15;;;;;;;8.15;6.95;;;6.50;99.90;;;;;;5065971;28;20185;-83
2021/04/09 07:42:41;;;;;;;12.07;7.43;;;6.80;99.90;;;;;;5065237;28;20199;-83
2021/04/09 07:45:11;;;;;;;10.48;8.15;;;6.60;99.90;;;;;;5066300;28;20203;-84
2021/04/09 07:47:39;;;;;;;13.77;7.00;;;6.70;99.90;;;;;;5065806;28;20183;-83
2021/04/09 07:50:09;;;;;;;6.65;5.93;;;6.70;99.90;;;;;;5064794;28;20227;-84
2021/04/09 07:52:46;;;;;;;7.82;7.03;;;6.80;99.90;;;;;;5066267;28;20624;-84
2021/04/09 07:55:21;;;;;;;13.73;6.75;;;7.00;99.90;;;;;;5065731;28;20274;-84
2021/04/09 07:57:48;;;;;;;14.32;8.10;;;7.00;99.90;;;;;;5064593;28;20202;-83
2021/04/09 08:00:23;;;;;;;13.93;7.20;;;7.10;99.90;;;;;;5065082;28;20213;-83
2021/04/09 08:02:51;;;;;;;9.10;7.65;;;7.50;99.90;;;;;;5073672;28;20191;-84
2021/04/09 08:05:20;;;;;;;7.25;6.55;;;7.30;99.90;;;;;;5070356;28;20275;-84
2021/04/09 08:07:46;;;;;;;8.50;6.53;;;7.30;99.90;;;;;;5064840;28;20210;-83
2021/04/09 08:10:14;;;;;;;10.88;7.63;;;7.50;99.90;;;;;;5065137;28;20219;-83
2021/04/09 08:12:42;;;;;;;11.68;6.28;;;8.20;99.90;;;;;;5067163;28;20209;-83
2021/04/09 08:15:13;;;;;;;7.38;6.63;;;7.70;99.90;;;;;;5064228;28;20241;-83
2021/04/09 08:17:41;;;;;;;13.25;7.13;;;7.90;99.90;;;;;;5066062;28;20265;-84
2021/04/09 08:20:12;;;;;;;9.45;6.50;;;7.90;99.90;;;;;;5066233;28;20214;-84
2021/04/09 08:22:39;;;;;;;7.78;6.32;;;7.80;99.90;;;;;;5066302;28;20199;-84
2021/04/09 08:25:07;;;;;;;15.20;6.95;;;8.00;99.90;;;;;;5067124;28;20271;-83
2021/04/09 08:27:35;;;;;;;11.43;7.50;;;8.10;99.90;;;;;;5069579;28;20199;-84
2021/04/09 08:30:02;;;;;;;10.13;7.18;;;8.20;99.90;;;;;;5066974;28;20223;-84
2021/04/09 08:32:31;;;;;;;8.35;6.80;;;8.40;99.90;;;;;;5067083;28;20257;-84
2021/04/09 08:34:58;;;;;;;11.02;6.00;;;8.60;99.90;;;;;;5066678;28;20265;-83
2021/04/09 08:37:25;;;;;;;9.48;6.70;;;8.80;99.90;;;;;;5066038;28;20215;-84
2021/04/09 08:39:52;;;;;;;8.03;7.07;;;8.90;99.90;;;;;;5066306;28;20199;-84
2021/04/09 08:42:19;;;;;;;12.10;6.77;;;9.00;99.90;;;;;;5065687;28;21009;-84
2021/04/09 08:44:45;;;;;;;14.27;6.90;;;9.00;99.90;;;;;;5066166;28;20503;-84
2021/04/09 08:47:15;;;;;;;11.43;7.10;;;9.40;99.90;;;;;;5066303;28;20445;-83
2021/04/09 08:49:42;;;;;;;10.23;6.57;;;9.20;99.90;;;;;;5065680;28;20477;-83
2021/04/09 08:52:11;;;;;;;9.40;6.20;;;9.30;99.90;;;;;;5066111;28;20449;-83
2021/04/09 08:54:49;;;;;;;9.10;6.93;;;9.20;99.90;;;;;;5065997;28;20472;-83
2021/04/09 08:57:28;;;;;;;10.23;5.80;;;9.00;99.90;;;;;;5066352;28;20753;-83
2021/04/09 09:00:11;;;;;;;7.83;6.50;;;9.50;99.90;;;;;;5064404;28;20869;-83
2021/04/09 09:02:43;;;;;;;7.73;6.23;;;9.80;99.90;;;;;;5065343;28;20430;-83
2021/04/09 09:05:12;;;;;;;8.13;6.40;;;9.50;99.90;;;;;;5066885;28;20445;-83
2021/04/09 09:08:04;;;;;;;7.93;6.30;;;9.70;99.90;;;;;;5068265;28;20481;-84
2021/04/09 09:10:50;;;;;;;8.37;7.33;;;10.30;99.90;;;;;;5047968;28;20614;-84
2021/04/09 09:13:30;;;;;;;10.67;7.80;;;9.70;99.90;;;;;;5061239;28;20527;-84
2021/04/09 09:15:59;;;;;;;7.83;7.03;;;9.90;99.90;;;;;;5065839;28;20460;-84
2021/04/09 09:18:56;;;;;;;6.87;6.20;;;9.90;99.90;;;;;;5065934;28;20450;-84
2021/04/09 09:21:40;;;;;;;12.13;6.50;;;9.90;99.90;;;;;;4985511;28;20441;-83
2021/04/09 09:24:29;;;;;;;11.10;7.37;;;9.60;99.90;;;;;;5056747;28;20496;-84
2021/04/09 09:26:55;;;;;;;7.30;5.93;;;9.50;99.90;;;;;;5065370;28;20437;-84
2021/04/09 09:29:23;;;;;;;8.50;6.90;;;10.00;99.90;;;;;;5065065;28;20496;-84
2021/04/09 09:31:58;;;;;;;13.70;8.03;;;10.00;99.90;;;;;;5065306;28;20503;-84
2021/04/09 09:34:44;;;;;;;11.90;7.30;;;10.00;99.90;;;;;;5064888;28;20475;-84
2021/04/09 09:37:13;;;;;;;6.63;6.03;;;10.20;99.90;;;;;;5065171;28;20433;-84
2021/04/09 09:39:42;;;;;;;10.03;7.07;;;10.30;99.90;;;;;;5064680;28;20433;-84
2021/04/09 09:42:13;;;;;;;10.10;6.20;;;10.40;99.90;;;;;;5065003;28;20444;-84
2021/04/09 09:44:44;;;;;;;10.60;8.00;;;10.50;99.90;;;;;;5062229;28;20461;-83
2021/04/09 09:47:25;;;;;;;9.77;7.00;;;10.70;99.90;;;;;;5061761;28;20891;-84
2021/04/09 09:50:30;;;;;;;9.60;7.57;;;10.60;99.90;;;;;;5062011;28;20465;-84
2021/04/09 09:53:00;;;;;;;10.50;6.87;;;10.80;99.90;;;;;;5062794;28;20671;-83
2021/04/09 09:55:30;;;;;;;13.03;7.30;;;11.10;99.90;;;;;;5063427;28;20911;-83
2021/04/09 09:58:01;;;;;;;10.13;7.67;;;10.70;99.90;;;;;;5068891;28;20795;-84
2021/04/09 10:00:33;;;;;;;11.90;7.80;;;10.80;99.90;;;;;;5065090;28;20441;-84
2021/04/09 10:03:14;;;;;;;9.87;7.83;;;11.10;99.90;;;;;;5069362;28;21110;-84
2021/04/09 10:05:42;;;;;;;8.97;7.23;;;11.30;99.90;;;;;;5074950;28;20433;-84
2021/04/09 10:08:09;;;;;;;8.27;7.30;;;11.30;99.90;;;;;;5074027;28;20445;-82
2021/04/09 10:10:42;;;;;;;8.50;7.37;;;11.30;99.90;;;;;;5074849;28;20500;-83
2021/04/09 10:13:22;;;;;;;8.23;7.43;;;11.30;99.90;;;;;;5073816;28;20515;-83
2021/04/09 10:15:50;;;;;;;7.60;6.80;;;11.30;99.90;;;;;;5072529;28;20437;-83
2021/04/09 10:18:17;;;;;;;10.80;7.80;;;11.40;99.90;;;;;;5069544;28;20944;-83
2021/04/09 10:20:43;;;;;;;12.10;8.70;;;11.40;99.90;;;;;;5065693;28;20449;-83
2021/04/09 10:23:09;;;;;;;10.50;8.80;;;11.50;99.90;;;;;;5064067;28;20469;-83
2021/04/09 10:25:36;;;;;;;11.80;7.80;;;11.50;99.90;;;;;;5065008;28;20548;-83
2021/04/09 10:28:10;;;;;;;9.90;7.70;;;11.30;99.90;;;;;;5067980;28;20433;-83
2021/04/09 10:30:36;;;;;;;7.93;6.57;;;11.50;99.90;;;;;;5068971;28;20481;-83
2021/04/09 10:33:03;;;;;;;11.17;6.60;;;11.40;99.90;;;;;;5065863;28;20465;-83
2021/04/09 10:35:29;;;;;;;10.43;8.00;;;11.60;99.90;;;;;;5064710;28;20453;-83
2021/04/09 10:38:11;;;;;;;10.30;7.17;;;11.60;99.90;;;;;;5064673;28;20445;-84
2021/04/09 10:40:55;;;;;;;8.83;7.60;;;11.70;99.90;;;;;;5065206;28;20456;-83
2021/04/09 10:43:30;;;;;;;11.27;7.00;;;11.40;99.90;;;;;;5065637;28;20465;-83
2021/04/09 10:46:10;;;;;;;10.03;6.07;;;11.30;99.90;;;;;;5069793;28;20441;-83
2021/04/09 10:48:37;;;;;;;14.23;7.40;;;11.40;99.90;;;;;;5066561;28;20437;-83
2021/04/09 10:51:04;;;;;;;7.57;6.83;;;11.70;99.90;;;;;;5068478;28;20453;-83
2021/04/09 10:53:30;;;;;;;8.90;7.03;;;11.60;99.90;;;;;;5069007;28;20469;-82
2021/04/09 10:56:09;;;;;;;8.60;7.63;;;11.70;99.90;;;;;;5066867;28;20442;-83
2021/04/09 10:58:38;;;;;;;11.17;7.83;;;11.40;99.90;;;;;;5071745;28;20460;-83
2021/04/09 11:01:04;;;;;;;10.10;8.03;;;11.40;99.90;;;;;;5075840;28;20442;-82
2021/04/09 11:03:31;;;;;;;9.20;7.00;;;11.50;99.90;;;;;;5073846;28;20492;-83
2021/04/09 11:05:58;;;;;;;14.67;7.20;;;11.70;99.90;;;;;;5068375;28;20460;-83
2021/04/09 11:08:38;;;;;;;9.63;7.80;;;11.70;99.90;;;;;;5068456;28;20500;-83
2021/04/09 11:11:07;;;;;;;7.47;6.73;;;11.80;99.90;;;;;;5066171;28;20447;-83
2021/04/09 11:13:36;;;;;;;7.40;6.57;;;11.80;99.90;;;;;;5065053;28;20898;-84
2021/04/09 11:16:04;;;;;;;7.83;5.80;;;11.80;99.90;;;;;;5065466;28;20487;-82
2021/04/09 11:18:51;;;;;;;18.67;7.03;;;11.90;99.90;;;;;;5064749;28;20472;-83
2021/04/09 11:21:43;;;;;;;15.17;9.60;;;11.80;99.90;;;;;;5064603;28;20876;-83
2021/04/09 11:24:11;;;;;;;11.80;6.90;;;11.90;99.90;;;;;;5063206;28;20508;-82
2021/04/09 11:26:37;;;;;;;13.77;7.33;;;11.90;99.90;;;;;;5063633;28;20806;-83
2021/04/09 11:29:04;;;;;;;13.20;7.47;;;12.00;99.90;;;;;;5065660;28;20486;-82
2021/04/09 11:31:34;;;;;;;11.00;7.70;;;12.10;99.90;;;;;;5063891;28;20441;-83
2021/04/09 11:34:07;;;;;;;9.23;6.60;;;;;;;;;;5063213;28;20470;-83
2021/04/09 11:36:41;;;;;;;11.90;7.40;;;;;;;;;;5063108;28;20492;-82
2021/04/09 11:39:13;;;;;;;10.23;7.40;;;12.50;99.90;;;;;;5062413;28;20427;-83
2021/04/09 11:41:41;;;;;;;10.23;8.20;;;12.50;99.90;;;;;;5063545;28;20481;-83
2021/04/09 11:44:32;;;;;;;7.87;6.20;;;11.90;99.90;;;;;;5062241;28;20501;-83
2021/04/09 11:47:17;;;;;;;9.30;6.67;;;12.60;99.60;;;;;;5064992;28;20409;-83
2021/04/09 11:49:44;;;;;;;11.20;6.83;;;12.50;99.50;;;;;;5064646;28;20469;-83
2021/04/09 11:52:11;;;;;;;10.43;7.40;;;12.80;99.90;;;;;;5063292;28;20460;-83
2021/04/09 11:54:41;;;;;;;7.20;6.50;;;12.50;98.60;;;;;;5063690;28;20480;-83
2021/04/09 11:57:21;;;;;;;8.50;6.00;;;12.50;98.90;;;;;;5076693;28;20509;-83
2021/04/09 11:59:47;;;;;;;7.50;6.30;;;12.50;98.70;;;;;;5076760;28;20404;-82
2021/04/09 12:02:20;;;;;;;8.70;5.97;;;12.40;98.40;;;;;;5076716;28;20529;-83
2021/04/09 12:04:47;;;;;;;8.77;6.20;;;12.50;99.20;;;;;;5075290;28;20507;-82
2021/04/09 12:07:16;;;;;;;6.90;6.00;;;12.60;98.70;;;;;;5074311;28;20438;-83
2021/04/09 12:09:45;;;;;;;8.63;5.37;;;12.90;99.80;;;;;;5074042;28;20545;-83
2021/04/09 12:12:12;;;;;;;9.33;6.23;;;13.00;99.20;;;;;;5074316;28;20442;-82
2021/04/09 12:14:41;;;;;;;7.43;6.20;;;13.00;99.90;;;;;;5074664;28;20515;-82
2021/04/09 12:17:08;;;;;;;9.47;6.13;;;13.70;99.50;;;;;;5076099;28;20456;-84
2021/04/09 12:19:35;;;;;;;13.63;7.00;;;12.90;97.40;;;;;;5070238;28;20472;-83
2021/04/09 12:22:02;;;;;;;8.53;5.83;;;12.50;98.00;;;;;;5070465;28;20441;-84
2021/04/09 12:24:28;;;;;;;9.20;6.00;;;12.60;97.50;;;;;;5068217;28;20481;-83
2021/04/09 12:26:55;;;;;;;6.40;5.67;;;12.70;98.20;;;;;;5069576;28;20445;-83
2021/04/09 12:29:21;;;;;;;6.47;5.97;;;12.40;97.50;;;;;;5067235;28;20454;-83
2021/04/09 12:31:48;;;;;;;8.40;6.20;;;12.90;96.30;;;;;;5066806;28;20452;-84
2021/04/09 12:34:18;;;;;;;6.53;5.97;;;12.90;96.50;;;;;;5066469;28;20450;-84
2021/04/09 12:36:46;;;;;;;6.07;5.50;;;12.80;95.80;;;;;;5067601;28;20442;-83
2021/04/09 12:39:13;;;;;;;9.20;6.50;;;12.50;96.90;;;;;;5066297;28;20460;-83
2021/04/09 12:41:45;;;;;;;8.63;6.50;;;13.20;96.60;;;;;;5067101;28;20476;-83
2021/04/09 12:44:13;;;;;;;8.40;6.97;;;12.60;95.90;;;;;;5063856;28;20536;-84
2021/04/09 12:46:40;;;;;;;10.97;6.23;;;13.50;97.30;;;;;;5062826;28;20453;-83
2021/04/09 12:49:06;;;;;;;6.90;5.90;;;13.50;96.90;;;;;;5062558;28;20568;-83
2021/04/09 12:51:33;;;;;;;13.03;7.30;;;13.30;96.50;;;;;;5062942;28;20449;-83
2021/04/09 12:54:01;;;;;;;10.53;7.07;;;13.60;97.20;;;;;;5068108;28;20465;-83
2021/04/09 12:56:27;;;;;;;7.53;6.90;;;13.30;95.70;;;;;;5067032;28;20438;-83
2021/04/09 12:58:54;;;;;;;10.83;7.87;;;13.20;95.90;;;;;;5070009;28;20441;-83
2021/04/09 13:01:20;;;;;;;9.57;7.83;;;13.20;96.00;;;;;;5070687;28;20468;-83
2021/04/09 13:03:47;;;;;;;9.93;7.87;;;13.20;97.10;;;;;;5068872;28;20481;-84
2021/04/09 13:06:14;;;;;;;8.37;7.20;;;13.30;97.20;;;;;;5066946;28;20469;-83
2021/04/09 13:08:42;;;;;;;14.40;7.70;;;13.30;95.10;;;;;;5072266;28;20445;-83
2021/04/09 13:11:09;;;;;;;10.00;7.40;;;13.40;96.00;;;;;;5077076;28;20469;-83
2021/04/09 13:13:38;;;;;;;17.87;7.67;;;12.90;99.90;;;;;;5097916;22;20484;-85
2021/04/09 13:16:05;;;;;;;10.67;8.03;;;13.20;96.30;;;;;;5096040;28;20440;-84
2021/04/09 13:18:33;;;;;;;13.90;7.30;;;13.10;95.30;;;;;;5095042;28;20440;-84
2021/04/09 13:21:00;;;;;;;14.67;7.43;;;12.90;96.20;;;;;;5095202;28;20492;-85
2021/04/09 13:23:29;;;;;;;9.20;7.10;;;13.30;95.50;;;;;;5095534;28;20465;-84
2021/04/09 13:25:55;;;;;;;9.10;7.20;;;13.40;95.20;;;;;;5096366;28;20421;-85
2021/04/09 13:28:24;;;;;;;14.93;8.20;;;13.20;93.70;;;;;;5093012;28;20441;-86
2021/04/09 13:30:56;;;;;;;11.27;8.00;;;13.20;95.80;;;;;;5094179;28;20511;-85